createdAt,value
2023-03-14T00:01:27.057Z,13.48
2023-03-14T00:03:57.126Z,16.17
2023-03-14T00:06:26.539Z,16.35
2023-03-14T00:08:56.107Z,13.52
2023-03-14T00:11:24.705Z,11.65
2023-03-14T00:13:54.465Z,9.40
2023-03-14T00:16:23.417Z,11.35
2023-03-14T00:18:51.908Z,9.90
2023-03-14T00:21:21.970Z,9.20
2023-03-14T00:23:50.436Z,11.48
2023-03-14T00:26:21.267Z,8.43
2023-03-14T00:28:53.918Z,6.10
2023-03-14T00:31:22.826Z,7.22
2023-03-14T00:33:53.677Z,6.30
2023-03-14T00:36:24.741Z,5.88
2023-03-14T00:38:54.299Z,4.25
2023-03-14T00:41:24.711Z,3.90
2023-03-14T00:43:54.538Z,4.60
2023-03-14T00:46:23.211Z,3.67
2023-03-14T00:48:51.845Z,3.13
2023-03-14T00:51:20.434Z,2.10
2023-03-14T00:53:50.524Z,2.58
2023-03-14T00:56:19.212Z,2.20
2023-03-14T00:58:47.860Z,2.85
2023-03-14T01:01:18.820Z,1.48
2023-03-14T01:03:48.032Z,1.48
2023-03-14T01:06:19.754Z,1.58
2023-03-14T01:08:50.327Z,1.77
2023-03-14T01:11:21.926Z,4.18
2023-03-14T01:13:50.733Z,2.10
2023-03-14T01:16:20.785Z,2.17
2023-03-14T01:18:49.870Z,2.20
2023-03-14T01:21:20.905Z,2.85
2023-03-14T01:23:52.077Z,2.25
2023-03-14T01:26:23.766Z,2.40
2023-03-14T01:31:21.491Z,2.50
2023-03-14T01:33:50.045Z,3.22
2023-03-14T01:36:18.975Z,3.97
2023-03-14T01:38:48.116Z,4.75
2023-03-14T01:41:22.127Z,6.72
2023-03-14T01:43:51.944Z,5.78
2023-03-14T01:46:28.783Z,3.83
2023-03-14T01:49:02.410Z,4.45
2023-03-14T01:51:39.073Z,5.07
2023-03-14T01:54:12.543Z,5.72
2023-03-14T01:56:45.857Z,6.72
2023-03-14T01:59:15.060Z,6.47
2023-03-14T02:01:46.590Z,7.40
2023-03-14T02:04:17.053Z,7.47
2023-03-14T02:06:52.350Z,9.95
2023-03-14T02:09:23.756Z,8.88
2023-03-14T02:11:54.535Z,10.55
2023-03-14T02:14:43.631Z,11.07
2023-03-14T02:17:32.821Z,13.90
2023-03-14T02:20:33.470Z,12.05
2023-03-14T02:23:02.388Z,14.82
2023-03-14T02:25:43.418Z,12.35
2023-03-14T02:28:14.274Z,12.98
2023-03-14T02:30:43.721Z,11.23
2023-03-14T02:33:15.168Z,14.02
2023-03-14T02:35:49.327Z,15.02
2023-03-14T02:38:23.141Z,13.07
2023-03-14T02:40:52.775Z,10.98
2023-03-14T02:43:23.048Z,10.70
2023-03-14T02:45:58.562Z,13.75
2023-03-14T02:48:29.325Z,13.32
2023-03-14T02:51:01.435Z,14.20
2023-03-14T02:53:33.012Z,15.68
2023-03-14T02:56:07.181Z,16.88
2023-03-14T02:58:38.981Z,19.40
2023-03-14T03:01:19.339Z,17.83
2023-03-14T03:03:47.845Z,22.15
2023-03-14T03:06:16.760Z,24.55
2023-03-14T03:08:45.751Z,27.23
2023-03-14T03:11:14.252Z,26.60
2023-03-14T03:13:44.928Z,34.03
2023-03-14T03:18:43.567Z,31.90
2023-03-14T03:21:12.253Z,34.38
2023-03-14T03:23:41.192Z,37.20
2023-03-14T03:26:11.896Z,34.15
2023-03-14T03:28:40.565Z,45.13
2023-03-14T03:31:12.376Z,40.05
2023-03-14T03:33:41.603Z,40.13
2023-03-14T03:36:11.483Z,43.42
2023-03-14T03:38:41.828Z,48.15
2023-03-14T03:41:11.579Z,42.25
2023-03-14T03:43:40.565Z,46.22
2023-03-14T03:46:12.996Z,45.13
2023-03-14T03:48:42.076Z,45.47
2023-03-14T03:51:15.265Z,42.25
2023-03-14T03:53:44.375Z,44.15
2023-03-14T03:56:15.596Z,42.65
2023-03-14T03:58:45.030Z,43.70
2023-03-14T04:01:15.390Z,41.22
2023-03-14T04:03:52.230Z,43.67
2023-03-14T04:06:24.845Z,47.60
2023-03-14T04:08:57.119Z,48.15
2023-03-14T04:11:44.893Z,55.55
2023-03-14T04:14:37.243Z,50.60
2023-03-14T04:17:15.119Z,46.22
2023-03-14T04:19:44.440Z,46.72
2023-03-14T04:22:16.609Z,51.47
2023-03-14T04:25:14.924Z,47.85
2023-03-14T04:27:53.336Z,50.90
2023-03-14T04:30:31.871Z,46.20
2023-03-14T04:33:22.672Z,55.00
2023-03-14T04:35:59.954Z,49.20
2023-03-14T04:38:32.638Z,55.15
2023-03-14T04:41:07.878Z,52.58
2023-03-14T04:43:37.920Z,61.83
2023-03-14T04:46:11.384Z,54.40
2023-03-14T04:48:42.363Z,55.05
2023-03-14T04:51:14.619Z,48.35
2023-03-14T04:53:43.621Z,56.30
2023-03-14T04:56:14.410Z,52.60
2023-03-14T04:58:46.196Z,55.00
2023-03-14T05:01:19.045Z,53.08
2023-03-14T05:04:07.842Z,48.47
2023-03-14T05:07:00.080Z,46.75
2023-03-14T05:09:49.410Z,51.00
2023-03-14T05:12:40.063Z,51.03
2023-03-14T05:15:44.276Z,49.20
2023-03-14T05:18:24.837Z,48.13
2023-03-14T05:21:11.905Z,50.22
2023-03-14T05:23:59.545Z,49.30
2023-03-14T05:26:48.663Z,47.67
2023-03-14T05:29:33.002Z,48.05
2023-03-14T05:32:21.888Z,51.53
2023-03-14T05:35:13.282Z,51.83
2023-03-14T05:38:09.281Z,54.65
2023-03-14T05:41:03.844Z,55.10
2023-03-14T05:43:50.963Z,52.38
2023-03-14T05:46:40.326Z,48.97
2023-03-14T05:49:26.851Z,55.17
2023-03-14T05:52:10.789Z,54.88
2023-03-14T05:54:59.090Z,56.17
2023-03-14T05:57:57.147Z,54.47
2023-03-14T06:00:45.820Z,54.60
2023-03-14T06:03:25.561Z,58.03
2023-03-14T06:05:54.490Z,52.67
2023-03-14T06:08:25.865Z,61.90
2023-03-14T06:10:56.082Z,56.28
2023-03-14T06:13:30.180Z,58.88
2023-03-14T06:15:58.956Z,55.90
2023-03-14T06:18:27.631Z,52.45
2023-03-14T06:20:57.624Z,48.78
2023-03-14T06:23:28.528Z,45.97
2023-03-14T06:26:01.200Z,51.08
2023-03-14T06:28:29.859Z,44.35
2023-03-14T06:31:02.443Z,50.83
2023-03-14T06:33:37.105Z,52.28
2023-03-14T06:36:07.076Z,52.58
2023-03-14T06:38:36.862Z,50.83
2023-03-14T06:41:09.208Z,45.83
2023-03-14T06:43:43.515Z,45.28
2023-03-14T06:46:12.497Z,46.17
2023-03-14T06:48:43.247Z,53.13
2023-03-14T06:51:12.172Z,46.95
2023-03-14T06:53:40.924Z,45.80
2023-03-14T06:56:11.968Z,44.58
2023-03-14T07:01:23.389Z,45.72
2023-03-14T07:03:52.803Z,45.38
2023-03-14T07:06:21.366Z,42.67
2023-03-14T07:08:50.463Z,48.78
2023-03-14T07:11:21.566Z,41.20
2023-03-14T07:13:50.906Z,38.25
2023-03-14T07:16:19.775Z,40.70
2023-03-14T07:18:48.472Z,43.67
2023-03-14T07:21:17.556Z,41.10
2023-03-14T07:23:46.611Z,41.63
2023-03-14T07:26:16.126Z,44.05
2023-03-14T07:28:50.610Z,40.85
2023-03-14T07:31:21.238Z,47.75
2023-03-14T07:33:49.944Z,41.22
2023-03-14T07:36:19.696Z,44.28
2023-03-14T07:38:49.576Z,42.30
2023-03-14T07:41:56.279Z,42.30
2023-03-14T07:44:59.135Z,42.03
2023-03-14T07:47:27.982Z,45.00
2023-03-14T07:49:56.580Z,44.88
2023-03-14T07:52:25.650Z,44.92
2023-03-14T07:54:54.063Z,48.15
2023-03-14T07:57:22.584Z,44.17
2023-03-14T07:59:51.163Z,41.58
2023-03-14T08:02:23.718Z,47.83
2023-03-14T08:04:53.078Z,38.13
2023-03-14T08:07:21.876Z,43.47
2023-03-14T08:09:50.423Z,38.42
2023-03-14T08:12:18.940Z,40.17
2023-03-14T08:14:47.768Z,36.67
2023-03-14T08:17:16.317Z,39.92
2023-03-14T08:19:46.440Z,38.42
2023-03-14T08:22:16.656Z,43.00
2023-03-14T08:24:46.801Z,38.60
2023-03-14T08:27:16.208Z,40.38
2023-03-14T08:29:45.039Z,38.38
2023-03-14T08:32:13.603Z,41.45
2023-03-14T08:34:42.264Z,35.28
2023-03-14T08:37:25.277Z,37.67
2023-03-14T08:39:55.300Z,31.63
2023-03-14T08:42:23.944Z,33.42
2023-03-14T08:44:53.625Z,34.33
2023-03-14T08:47:22.406Z,32.05
2023-03-14T08:49:51.003Z,33.60
2023-03-14T08:52:20.969Z,35.45
2023-03-14T08:54:49.631Z,32.53
2023-03-14T08:57:18.323Z,32.95
2023-03-14T08:59:46.905Z,31.33
2023-03-14T09:02:15.833Z,31.20
2023-03-14T09:04:44.432Z,30.27
2023-03-14T09:07:12.969Z,29.15
2023-03-14T09:09:43.203Z,34.08
2023-03-14T09:12:11.992Z,30.27
2023-03-14T09:14:40.710Z,31.48
2023-03-14T09:17:09.616Z,29.10
2023-03-14T09:19:38.515Z,27.80
2023-03-14T09:22:07.144Z,32.22
2023-03-14T09:24:35.681Z,28.77
2023-03-14T09:27:05.812Z,30.90
2023-03-14T09:29:34.626Z,28.25
2023-03-14T09:32:03.393Z,27.73
2023-03-14T09:34:32.405Z,31.23
2023-03-14T09:37:00.916Z,31.77
2023-03-14T09:39:29.589Z,30.52
2023-03-14T09:42:04.113Z,33.10
2023-03-14T09:44:37.146Z,28.60
2023-03-14T09:47:08.519Z,32.63
2023-03-14T09:49:42.533Z,34.83
2023-03-14T09:52:17.002Z,33.17
2023-03-14T09:54:49.608Z,26.90
2023-03-14T09:57:20.859Z,28.38
2023-03-14T09:59:52.635Z,28.88
2023-03-14T10:02:24.426Z,30.63
2023-03-14T10:04:55.530Z,29.63
2023-03-14T10:07:30.355Z,31.58
2023-03-14T10:10:00.156Z,29.08
2023-03-14T10:12:35.977Z,27.85
2023-03-14T10:15:09.228Z,29.80
2023-03-14T10:17:43.374Z,26.98
2023-03-14T10:20:34.232Z,26.55
2023-03-14T10:23:04.558Z,26.00
2023-03-14T10:25:34.739Z,23.73
2023-03-14T10:28:06.616Z,26.90
2023-03-14T10:30:46.565Z,27.50
2023-03-14T10:33:23.644Z,23.52
2023-03-14T10:35:57.572Z,23.85
2023-03-14T10:38:28.803Z,26.30
2023-03-14T10:40:59.838Z,24.02
2023-03-14T10:46:02.654Z,24.92
2023-03-14T10:48:37.293Z,20.90
2023-03-14T10:51:09.444Z,25.13
2023-03-14T10:53:47.135Z,25.17
2023-03-14T10:56:17.153Z,26.38
2023-03-14T10:58:47.567Z,21.02
2023-03-14T11:01:29.943Z,19.02
2023-03-14T11:04:04.104Z,24.23
2023-03-14T11:06:41.703Z,20.17
2023-03-14T11:09:20.383Z,24.67
2023-03-14T11:11:50.066Z,22.90
2023-03-14T11:14:30.619Z,21.38
2023-03-14T11:17:06.162Z,20.48
2023-03-14T11:20:00.618Z,19.88
2023-03-14T11:22:39.621Z,19.75
2023-03-14T11:25:26.123Z,21.48
2023-03-14T11:28:02.994Z,18.00
2023-03-14T11:30:41.274Z,24.60
2023-03-14T11:33:17.414Z,20.17
2023-03-14T11:35:51.736Z,19.00
2023-03-14T11:38:32.192Z,20.50
2023-03-14T11:41:02.229Z,18.60
2023-03-14T11:43:33.278Z,23.63
2023-03-14T11:48:45.171Z,16.63
2023-03-14T11:51:23.295Z,16.65
2023-03-14T11:54:03.080Z,15.35
2023-03-14T11:56:37.324Z,21.92
2023-03-14T11:59:12.059Z,18.48
2023-03-14T12:01:54.151Z,17.60
2023-03-14T12:04:48.036Z,16.02
2023-03-14T12:07:21.883Z,18.23
2023-03-14T12:09:52.249Z,20.98
2023-03-14T12:12:25.042Z,14.90
2023-03-14T12:14:59.183Z,17.08
2023-03-14T12:17:29.866Z,17.48
2023-03-14T12:20:17.589Z,15.05
2023-03-14T12:22:48.919Z,19.65
2023-03-14T12:25:21.200Z,16.10
2023-03-14T12:28:04.713Z,16.50
2023-03-14T12:30:35.162Z,15.77
2023-03-14T12:33:31.904Z,15.13
2023-03-14T12:36:33.946Z,16.45
2023-03-14T12:39:15.923Z,16.80
2023-03-14T12:41:48.996Z,16.95
2023-03-14T12:44:44.855Z,14.90
2023-03-14T12:48:00.906Z,17.92
2023-03-14T12:50:36.376Z,19.73
2023-03-14T12:53:40.294Z,16.35
2023-03-14T12:56:21.839Z,17.90
2023-03-14T12:59:04.935Z,16.75
2023-03-14T13:01:36.517Z,18.80
2023-03-14T13:04:11.508Z,17.45
2023-03-14T13:06:55.610Z,13.82
2023-03-14T13:09:55.840Z,19.50
2023-03-14T13:12:33.608Z,17.08
2023-03-14T13:15:04.142Z,18.23
2023-03-14T13:17:37.765Z,19.35
2023-03-14T13:20:17.302Z,15.07
2023-03-14T13:22:50.614Z,20.42
2023-03-14T13:25:22.240Z,21.08
2023-03-14T13:27:56.869Z,23.50
2023-03-14T13:30:28.349Z,20.88
2023-03-14T13:32:58.307Z,16.40
2023-03-14T13:35:29.656Z,16.60
2023-03-14T13:38:11.214Z,14.48
2023-03-14T13:40:41.134Z,17.30
2023-03-14T13:43:19.370Z,16.10
2023-03-14T13:45:52.587Z,17.75
2023-03-14T13:48:22.242Z,15.75
2023-03-14T13:50:56.761Z,16.42
2023-03-14T13:53:25.965Z,16.45
2023-03-14T13:55:55.853Z,17.65
2023-03-14T13:58:32.248Z,17.60
2023-03-14T14:01:15.535Z,14.48
2023-03-14T14:03:52.297Z,16.60
2023-03-14T14:06:30.789Z,15.23
2023-03-14T14:09:04.237Z,20.08
2023-03-14T14:12:07.472Z,16.25
2023-03-14T14:14:48.109Z,18.08
2023-03-14T14:17:26.219Z,17.13
2023-03-14T14:19:57.799Z,18.45
2023-03-14T14:22:29.140Z,17.25
2023-03-14T14:24:58.262Z,20.25
2023-03-14T14:27:36.393Z,22.30
2023-03-14T14:30:29.918Z,19.58
2023-03-14T14:33:15.614Z,20.30
2023-03-14T14:35:44.500Z,21.15
2023-03-14T14:38:18.854Z,18.58
2023-03-14T14:40:50.568Z,21.55
2023-03-14T14:43:21.640Z,21.92
2023-03-14T14:45:54.139Z,20.30
2023-03-14T14:48:25.423Z,20.35
2023-03-14T14:51:03.924Z,19.05
2023-03-14T14:53:38.112Z,19.35
2023-03-14T14:56:10.226Z,19.35
2023-03-14T14:58:45.042Z,22.77
2023-03-14T15:01:18.402Z,25.65
2023-03-14T15:03:49.785Z,23.17
2023-03-14T15:06:20.061Z,21.17
2023-03-14T15:08:50.113Z,23.65
2023-03-14T15:11:20.748Z,21.20
2023-03-14T15:13:49.408Z,23.13
2023-03-14T15:16:21.984Z,21.92
2023-03-14T15:18:55.268Z,24.13
2023-03-14T15:21:24.145Z,21.88
2023-03-14T15:23:52.959Z,18.40
2023-03-14T15:26:23.870Z,17.55
2023-03-14T15:28:52.755Z,16.88
2023-03-14T15:31:23.570Z,16.80
2023-03-14T15:33:52.653Z,19.00
2023-03-14T15:36:26.951Z,17.77
2023-03-14T15:38:56.514Z,15.45
2023-03-14T15:41:25.766Z,19.75
2023-03-14T15:43:54.614Z,18.13
2023-03-14T15:46:25.309Z,20.05
2023-03-14T15:48:54.468Z,18.52
2023-03-14T15:51:23.098Z,18.17
2023-03-14T15:53:52.948Z,20.23
2023-03-14T15:56:25.212Z,20.98
2023-03-14T15:58:53.908Z,21.52
2023-03-14T16:01:23.966Z,21.58
2023-03-14T16:03:53.895Z,22.00
2023-03-14T16:06:22.555Z,24.42
2023-03-14T16:08:51.103Z,17.92
2023-03-14T16:11:21.622Z,20.80
2023-03-14T16:13:51.944Z,26.00
2023-03-14T16:16:20.707Z,24.27
2023-03-14T16:18:50.663Z,27.63
2023-03-14T16:21:21.237Z,27.13
2023-03-14T16:23:55.488Z,24.17
2023-03-14T16:26:37.608Z,23.15
2023-03-14T16:29:29.168Z,23.85
2023-03-14T16:36:04.128Z,23.42
2023-03-14T16:38:34.158Z,21.67
2023-03-14T16:41:30.559Z,19.55
2023-03-14T16:44:03.808Z,18.70
2023-03-14T16:46:32.891Z,20.15
2023-03-14T16:49:10.931Z,17.25
2023-03-14T16:51:59.050Z,18.25
2023-03-14T16:54:33.867Z,17.30
2023-03-14T16:57:06.348Z,19.70
2023-03-14T16:59:37.251Z,17.85
2023-03-14T17:02:09.007Z,17.67
2023-03-14T17:04:41.850Z,18.65
2023-03-14T17:07:37.333Z,17.02
2023-03-14T17:13:35.613Z,16.90
2023-03-14T17:16:08.320Z,22.80
2023-03-14T17:18:41.942Z,17.25
2023-03-14T17:21:24.686Z,18.35
2023-03-14T17:24:05.055Z,18.25
2023-03-14T17:29:35.236Z,17.87
2023-03-14T17:32:19.932Z,17.73
2023-03-14T17:39:09.370Z,18.20
2023-03-14T17:42:12.504Z,19.25
2023-03-14T17:51:49.150Z,19.67
2023-03-14T17:54:30.806Z,19.55
2023-03-14T17:57:10.028Z,19.55
2023-03-14T17:59:39.858Z,19.98
2023-03-14T18:02:10.468Z,19.05
2023-03-14T18:04:39.167Z,18.65
2023-03-14T18:07:07.773Z,17.77
2023-03-14T18:09:37.905Z,19.88
2023-03-14T18:12:08.481Z,23.45
2023-03-14T18:14:37.938Z,25.00
2023-03-14T18:17:07.191Z,21.10
2023-03-14T18:19:35.751Z,21.48
2023-03-14T18:22:07.151Z,23.58
2023-03-14T18:24:40.429Z,20.30
2023-03-14T18:27:54.200Z,21.23
2023-03-14T18:44:16.127Z,21.95
2023-03-14T18:47:13.572Z,21.67
2023-03-14T18:49:42.509Z,19.42
2023-03-14T18:52:10.950Z,21.63
2023-03-14T18:54:42.281Z,19.52
2023-03-14T18:57:11.009Z,18.73
2023-03-14T18:59:39.460Z,20.50
2023-03-14T19:02:08.471Z,19.75
2023-03-14T19:04:38.544Z,19.30
2023-03-14T19:07:06.936Z,20.73
2023-03-14T19:09:36.272Z,17.88
2023-03-14T19:24:41.396Z,20.20
2023-03-14T19:27:15.416Z,19.55
2023-03-14T19:29:44.417Z,18.70
2023-03-14T19:32:19.422Z,18.38
2023-03-14T19:34:55.636Z,18.85
2023-03-14T19:38:00.356Z,18.55
2023-03-14T19:40:35.394Z,21.85
2023-03-14T19:43:13.352Z,22.33
2023-03-14T19:45:46.035Z,25.33
2023-03-14T19:48:14.774Z,22.13
2023-03-14T19:50:43.837Z,18.85
2023-03-14T19:53:13.217Z,18.92
2023-03-14T19:55:46.821Z,22.90
2023-03-14T19:58:15.436Z,21.73
2023-03-14T20:00:45.776Z,20.63
2023-03-14T20:03:14.314Z,19.92
2023-03-14T20:05:44.954Z,22.00
2023-03-14T20:08:13.536Z,20.80
2023-03-14T20:10:43.914Z,22.88
2023-03-14T20:13:21.492Z,22.50
2023-03-14T20:15:53.311Z,21.45
2023-03-14T20:18:23.434Z,21.33
2023-03-14T20:20:52.489Z,20.30
2023-03-14T20:23:21.046Z,21.15
2023-03-14T20:25:56.505Z,21.10
2023-03-14T20:28:25.420Z,20.73
2023-03-14T20:30:54.279Z,18.70
2023-03-14T20:33:23.347Z,19.30
2023-03-14T20:35:56.940Z,17.80
2023-03-14T20:38:26.872Z,20.20
2023-03-14T20:40:59.669Z,19.35
2023-03-14T20:43:29.400Z,23.23
2023-03-14T20:45:59.865Z,19.02
2023-03-14T20:48:30.536Z,22.05
2023-03-14T20:50:59.576Z,20.00
2023-03-14T20:53:28.136Z,22.40
2023-03-14T20:55:59.037Z,21.27
2023-03-14T20:58:27.961Z,19.33
2023-03-14T21:00:58.001Z,20.23
2023-03-14T21:03:26.951Z,19.35
2023-03-14T21:05:56.074Z,18.00
2023-03-14T21:08:26.191Z,19.98
2023-03-14T21:10:56.793Z,17.80
2023-03-14T21:13:27.009Z,17.67
2023-03-14T21:15:55.807Z,17.02
2023-03-14T21:18:24.510Z,21.42
2023-03-14T21:20:55.133Z,18.17
2023-03-14T21:23:26.717Z,16.85
2023-03-14T21:25:55.971Z,18.08
2023-03-14T21:28:24.628Z,20.05
2023-03-14T21:30:55.017Z,19.27
2023-03-14T21:33:24.110Z,17.55
2023-03-14T21:35:54.107Z,20.55
2023-03-14T21:38:22.728Z,18.77
2023-03-14T21:40:57.355Z,18.05
2023-03-14T21:43:26.261Z,21.75
2023-03-14T21:45:56.650Z,16.58
2023-03-14T21:48:25.230Z,20.48
2023-03-14T21:50:53.807Z,19.73
2023-03-14T21:53:22.630Z,21.88
2023-03-14T21:55:53.984Z,20.77
2023-03-14T21:58:24.091Z,19.38
2023-03-14T22:00:52.773Z,23.00
2023-03-14T22:03:24.066Z,23.13
2023-03-14T22:05:52.708Z,23.17
2023-03-14T22:08:22.900Z,27.30
2023-03-14T22:10:52.967Z,18.38
2023-03-14T22:13:22.584Z,26.98
2023-03-14T22:15:52.296Z,21.40
2023-03-14T22:18:22.483Z,22.13
2023-03-14T22:20:50.949Z,20.55
2023-03-14T22:23:20.426Z,23.13
2023-03-14T22:25:50.686Z,21.65
2023-03-14T22:28:20.072Z,24.02
2023-03-14T22:30:49.238Z,24.02
2023-03-14T22:33:18.555Z,24.15
2023-03-14T22:35:51.108Z,25.65
2023-03-14T22:38:20.198Z,22.85
2023-03-14T22:40:49.092Z,22.92
2023-03-14T22:43:17.622Z,23.13
2023-03-14T22:45:46.489Z,23.92
2023-03-14T22:48:15.499Z,25.27
2023-03-14T22:50:43.997Z,23.23
2023-03-14T22:53:14.117Z,22.33
2023-03-14T22:55:42.618Z,23.98
2023-03-14T22:58:11.150Z,22.83
2023-03-14T23:00:40.241Z,26.13
2023-03-14T23:03:08.783Z,23.60
2023-03-14T23:05:37.500Z,24.92
2023-03-14T23:08:06.112Z,26.60
2023-03-14T23:10:36.058Z,24.10
2023-03-14T23:13:05.833Z,27.02
2023-03-14T23:15:35.207Z,22.20
2023-03-14T23:18:03.651Z,25.67
2023-03-14T23:20:32.151Z,23.30
2023-03-14T23:23:00.558Z,22.25
2023-03-14T23:25:31.722Z,24.38
2023-03-14T23:28:04.093Z,21.52
2023-03-14T23:30:32.748Z,22.52
2023-03-14T23:33:01.516Z,21.38
2023-03-14T23:35:30.194Z,27.13
2023-03-14T23:37:58.664Z,23.65
2023-03-14T23:40:27.115Z,26.58
2023-03-14T23:42:55.609Z,24.25
2023-03-14T23:45:25.634Z,25.75
2023-03-14T23:47:54.124Z,24.90
2023-03-14T23:50:22.817Z,25.35
2023-03-14T23:52:51.734Z,22.05
2023-03-14T23:55:20.224Z,24.90
2023-03-14T23:57:49.051Z,23.30
